Aviation Digital Data Service (ADDS)

Output produced by METARs form (1916 UTC 19 April 2019)
found at http://www.aviationweather.gov/metar/data/
 
Forecast for: RJNK (KOMATSU (CIV/JAS, JP)
Text: TAF RJNK 191705Z 1918/2100 04010KT 9999 FEW030
Forecast period: 1800 UTC 19 April 2019 to 1200 UTC 20 April 2019
Forecast type: FROM: standard forecast or significant change
Winds: from the NE (40 degrees) at 12 MPH (10 knots; 5.1 m/s)
Visibility: 6 or more miles 10+ km)
Ceiling: at least 12,000 feet AGL
Clouds: few clouds at 3000 feet AGL
Weather: no significant weather forecast for this period
Text: BECMG 2012/2015 18004KT
Forecast period: 1200 UTC 20 April 2019 to 0000 UTC 21 April 2019
Forecast type: BECOMING: Conditions expected to become as follows by 1500 UTC 20 April 2019
Winds: from the S (180 degrees) at 5 MPH (4 knots; 2.1 m/s)
Visibility: 6 or more miles 10+ km)
Ceiling: at least 12,000 feet AGL
Clouds: few clouds at 3000 feet AGL
Weather: no significant weather forecast for this period